Time;durP1;ratioP1;P1;durP2;ratioP2;P2;SDS_P1;SDS_P2;PMS_P1;PMS_P2;Temp;Humidity;BMP_temperature;BMP_pressure;BME280_temperature;BME280_humidity;BME280_pressure;Samples;Min_cycle;Max_cycle;Signal;HPM_P1;HPM_P2
2022/12/09 00:00:55;;;;;;;;;;;10.10;99.90;;;;;;5088224;28;20347;-71
2022/12/09 00:03:20;;;;;;;;;;;10.10;99.90;;;;;;5114063;27;19912;-70
2022/12/09 00:05:46;;;;;;;;;;;10.10;99.90;;;;;;5089067;28;19908;-70
2022/12/09 00:08:12;;;;;;;;;;;10.10;99.90;;;;;;5096590;28;20445;-70
2022/12/09 00:10:38;;;;;;;;;;;10.00;99.90;;;;;;5094578;28;20003;-70
2022/12/09 00:13:03;;;;;;;;;;;10.10;99.90;;;;;;5100019;28;20371;-69
2022/12/09 00:15:29;;;;;;;;;;;10.00;99.90;;;;;;5076777;28;19908;-70
2022/12/09 00:17:55;;;;;;;;;;;10.00;99.90;;;;;;5077446;28;19908;-70
2022/12/09 00:20:20;;;;;;;;;;;10.00;99.90;;;;;;5076273;28;20379;-68
2022/12/09 00:22:46;;;;;;;;;;;10.00;99.90;;;;;;5076511;28;19909;-69
2022/12/09 00:25:12;;;;;;;;;;;10.00;99.90;;;;;;5076263;28;19909;-70
2022/12/09 00:27:38;;;;;;;;;;;10.00;99.90;;;;;;5075857;28;19909;-69
2022/12/09 00:30:03;;;;;;;;;;;10.10;99.90;;;;;;5076235;28;19908;-71
2022/12/09 00:32:29;;;;;;;;;;;10.10;99.90;;;;;;5075955;28;19909;-69
2022/12/09 00:34:55;;;;;;;;;;;10.00;99.90;;;;;;5093349;28;19972;-70
2022/12/09 00:37:21;;;;;;;;;;;10.00;99.90;;;;;;5093537;28;19919;-71
2022/12/09 00:39:47;;;;;;;;;;;10.00;99.90;;;;;;5087779;28;19927;-70
2022/12/09 00:42:12;;;;;;;;;;;10.00;99.90;;;;;;5076702;28;19916;-70
2022/12/09 00:44:38;;;;;;;;;;;9.90;99.90;;;;;;5095025;28;20014;-70
2022/12/09 00:47:04;;;;;;;;;;;9.90;99.90;;;;;;5087128;28;19912;-70
2022/12/09 00:49:30;;;;;;;;;;;9.90;99.90;;;;;;5087131;28;19916;-70
2022/12/09 00:51:55;;;;;;;;;;;9.90;99.90;;;;;;5089620;28;19912;-70
2022/12/09 00:54:21;;;;;;;;;;;9.90;99.90;;;;;;5094260;28;19967;-70
2022/12/09 00:56:47;;;;;;;;;;;9.90;99.90;;;;;;5094165;28;19916;-70
2022/12/09 00:59:12;;;;;;;;;;;9.90;99.90;;;;;;5093208;28;20007;-70
2022/12/09 01:01:38;;;;;;;;;;;10.00;99.90;;;;;;5088357;28;19911;-70
2022/12/09 01:04:06;;;;;;;;;;;10.00;99.90;;;;;;5095694;28;19947;-70
2022/12/09 01:06:32;;;;;;;;;;;10.00;99.90;;;;;;5091126;28;19919;-70
2022/12/09 01:08:58;;;;;;;;;;;9.90;99.90;;;;;;5097471;28;19912;-70
2022/12/09 01:11:26;;;;;;;;;;;9.90;99.90;;;;;;5091150;28;19995;-70
2022/12/09 01:14:07;;;;;;;;;;;9.90;99.90;;;;;;5091759;28;19923;-70
2022/12/09 01:16:33;;;;;;;;;;;9.90;99.90;;;;;;5083981;28;19919;-70
2022/12/09 01:19:00;;;;;;;;;;;10.00;99.90;;;;;;5095133;28;19912;-70
2022/12/09 01:21:27;;;;;;;;;;;9.90;99.90;;;;;;5093537;28;19965;-71
2022/12/09 01:23:52;;;;;;;;;;;9.90;99.90;;;;;;5094124;28;19919;-71
2022/12/09 01:26:19;;;;;;;;;;;9.90;99.90;;;;;;5084506;28;19916;-71
2022/12/09 01:28:51;;;;;;;;;;;9.90;99.90;;;;;;5090225;28;19919;-71
2022/12/09 01:31:21;;;;;;;;;;;9.80;99.90;;;;;;5077629;28;19919;-71
2022/12/09 01:33:47;;;;;;;;;;;9.80;99.90;;;;;;5078235;28;19916;-71
2022/12/09 01:36:14;;;;;;;;;;;9.70;99.90;;;;;;5087837;28;20030;-71
2022/12/09 01:38:40;;;;;;;;;;;9.70;99.90;;;;;;5096623;28;20032;-71
2022/12/09 01:41:05;;;;;;;;;;;9.70;99.90;;;;;;5079873;28;20007;-71
2022/12/09 01:43:31;;;;;;;;;;;9.70;99.90;;;;;;5066017;28;19908;-71
2022/12/09 01:45:57;;;;;;;;;;;9.70;99.90;;;;;;5094353;28;19916;-71
2022/12/09 01:48:26;;;;;;;;;;;9.80;99.90;;;;;;5094728;28;19915;-71
2022/12/09 01:51:12;;;;;;;;;;;9.80;99.90;;;;;;5095129;28;20274;-71
2022/12/09 01:53:57;;;;;;;;;;;9.70;99.90;;;;;;5090125;28;19935;-71
2022/12/09 01:56:27;;;;;;;;;;;9.90;99.90;;;;;;5089793;28;19940;-71
2022/12/09 01:58:53;;;;;;;;;;;9.80;99.90;;;;;;5075099;28;19916;-73
2022/12/09 02:01:19;;;;;;;;;;;9.80;99.90;;;;;;5075926;28;20005;-71
2022/12/09 02:03:48;;;;;;;;;;;9.70;99.90;;;;;;5075840;28;20260;-71
2022/12/09 02:06:14;;;;;;;;;;;9.70;99.90;;;;;;5073868;28;20338;-71
2022/12/09 02:08:40;;;;;;;;;;;9.70;99.90;;;;;;5075214;28;20269;-71
2022/12/09 02:11:11;;;;;;;;;;;9.70;99.90;;;;;;5075619;28;19916;-71
2022/12/09 02:13:56;;;;;;;;;;;9.70;99.90;;;;;;5077998;28;19931;-71
2022/12/09 02:16:24;;;;;;;;;;;9.70;99.90;;;;;;5081220;28;20360;-71
2022/12/09 02:19:23;;;;;;;;;;;9.80;99.90;;;;;;5075996;28;19913;-71
2022/12/09 02:22:06;;;;;;;;;;;9.70;99.90;;;;;;5101999;28;20357;-71
2022/12/09 02:25:08;;;;;;;;;;;9.70;99.90;;;;;;5086723;28;20407;-71
2022/12/09 02:27:52;;;;;;;;;;;9.70;99.90;;;;;;5076025;28;19912;-72
2022/12/09 02:30:30;;;;;;;;;;;9.70;99.90;;;;;;5085374;28;19939;-71
2022/12/09 02:33:24;;;;;;;;;;;;;;;;;;;;;
2022/12/09 02:39:09;;;;;;;;;;;9.70;99.90;;;;;;5072508;28;20350;-71
2022/12/09 02:41:38;;;;;;;;;;;9.70;99.90;;;;;;5091452;28;19923;-72
2022/12/09 02:44:17;;;;;;;;;;;9.80;99.90;;;;;;5075448;28;20030;-71
2022/12/09 02:47:05;;;;;;;;;;;9.80;99.90;;;;;;5075041;28;19916;-71
2022/12/09 02:49:30;;;;;;;;;;;9.70;99.90;;;;;;5076679;28;20375;-71
2022/12/09 02:52:03;;;;;;;;;;;9.70;99.90;;;;;;5074498;28;19977;-71
2022/12/09 02:54:46;;;;;;;;;;;9.70;99.90;;;;;;5076708;28;19939;-71
2022/12/09 02:57:16;;;;;;;;;;;9.60;99.90;;;;;;5076547;28;19916;-71
2022/12/09 02:59:41;;;;;;;;;;;9.70;99.90;;;;;;5076214;28;20395;-71
2022/12/09 03:02:33;;;;;;;;;;;9.70;99.90;;;;;;5076084;28;20017;-71
2022/12/09 03:05:09;;;;;;;;;;;9.70;99.90;;;;;;5075349;28;20011;-71
2022/12/09 03:07:40;;;;;;;;;;;9.60;99.90;;;;;;5075947;28;19920;-71
2022/12/09 03:10:18;;;;;;;;;;;9.70;99.90;;;;;;5077493;28;19913;-71
2022/12/09 03:13:02;;;;;;;;;;;9.70;99.90;;;;;;5075465;28;19916;-71
2022/12/09 03:15:30;;;;;;;;;;;9.70;99.90;;;;;;5077520;28;19919;-72
2022/12/09 03:17:57;;;;;;;;;;;9.70;99.90;;;;;;5075940;28;19916;-72
2022/12/09 03:20:30;;;;;;;;;;;9.70;99.90;;;;;;5076507;28;19948;-71
2022/12/09 03:22:58;;;;;;;;;;;9.70;99.90;;;;;;5075571;28;20005;-72
2022/12/09 03:25:31;;;;;;;;;;;9.60;99.90;;;;;;5075742;28;19920;-71
2022/12/09 03:28:01;;;;;;;;;;;9.60;99.90;;;;;;5074272;28;19917;-71
2022/12/09 03:30:32;;;;;;;;;;;9.60;99.90;;;;;;5074551;28;19916;-72
2022/12/09 03:32:59;;;;;;;;;;;9.70;99.90;;;;;;5074196;28;19940;-71
2022/12/09 03:35:33;;;;;;;;;;;9.60;99.90;;;;;;5078757;28;19919;-71
2022/12/09 03:38:01;;;;;;;;;;;9.60;99.90;;;;;;5089171;28;19939;-73
2022/12/09 03:40:31;;;;;;;;;;;9.70;99.90;;;;;;5093207;28;19912;-71
2022/12/09 03:43:00;;;;;;;;;;;9.60;99.90;;;;;;5082826;28;20371;-71
2022/12/09 03:45:26;;;;;;;;;;;9.70;99.90;;;;;;5093226;28;19916;-71
2022/12/09 03:47:55;;;;;;;;;;;9.60;99.90;;;;;;5093650;28;19916;-71
2022/12/09 03:50:28;;;;;;;;;;;9.60;99.90;;;;;;5085712;28;19967;-71
2022/12/09 03:53:24;;;;;;;;;;;;;;;;;;;;;
2022/12/09 03:56:18;;;;;;;;;;;9.60;99.90;;;;;;5084635;28;19919;-71
2022/12/09 03:58:46;;;;;;;;;;;9.50;99.90;;;;;;5082892;28;19913;-72
2022/12/09 04:01:13;;;;;;;;;;;9.50;99.90;;;;;;5084008;28;19971;-71
2022/12/09 04:03:38;;;;;;;;;;;9.50;99.90;;;;;;5090148;28;19957;-71
2022/12/09 04:06:04;;;;;;;;;;;9.50;99.90;;;;;;5072883;28;20371;-71
2022/12/09 04:08:30;;;;;;;;;;;9.50;99.90;;;;;;5095335;28;19916;-71
2022/12/09 04:10:56;;;;;;;;;;;9.50;99.90;;;;;;5089972;28;19912;-71
2022/12/09 04:13:22;;;;;;;;;;;9.50;99.90;;;;;;5090563;28;19920;-72
2022/12/09 04:15:48;;;;;;;;;;;9.50;99.90;;;;;;5088441;28;19912;-71
2022/12/09 04:18:13;;;;;;;;;;;9.50;99.90;;;;;;5094819;28;19920;-71
2022/12/09 04:20:49;;;;;;;;;;;9.60;99.90;;;;;;5090561;28;19912;-71
2022/12/09 04:23:15;;;;;;;;;;;9.50;99.90;;;;;;5090255;28;20005;-72
2022/12/09 04:25:41;;;;;;;;;;;9.50;99.90;;;;;;5092133;28;20101;-71
2022/12/09 04:28:06;;;;;;;;;;;9.50;99.90;;;;;;5074213;28;19919;-72
2022/12/09 04:30:32;;;;;;;;;;;9.50;99.90;;;;;;5076446;28;19923;-71
2022/12/09 04:32:58;;;;;;;;;;;9.50;99.90;;;;;;5074611;28;19917;-71
2022/12/09 04:35:42;;;;;;;;;;;9.50;99.90;;;;;;5094055;28;19912;-71
2022/12/09 04:38:08;;;;;;;;;;;9.50;99.90;;;;;;5095501;28;20265;-71
2022/12/09 04:40:34;;;;;;;;;;;9.60;99.90;;;;;;5094302;28;19954;-72
2022/12/09 04:43:00;;;;;;;;;;;9.60;99.90;;;;;;5084778;28;19916;-71
2022/12/09 04:45:25;;;;;;;;;;;9.60;99.90;;;;;;5074430;28;19916;-71
2022/12/09 04:47:51;;;;;;;;;;;9.60;99.90;;;;;;5075658;28;19909;-71
2022/12/09 04:50:27;;;;;;;;;;;9.60;99.90;;;;;;5075880;28;19919;-71
2022/12/09 04:52:53;;;;;;;;;;;9.60;99.90;;;;;;5083329;28;20287;-71
2022/12/09 04:55:40;;;;;;;;;;;9.70;99.90;;;;;;5078678;28;19912;-71
2022/12/09 04:58:05;;;;;;;;;;;9.70;99.90;;;;;;5074346;28;20470;-71
2022/12/09 05:00:30;;;;;;;;;;;9.60;99.90;;;;;;5073899;28;19928;-71
2022/12/09 05:02:56;;;;;;;;;;;9.60;99.90;;;;;;5082804;28;19912;-71
2022/12/09 05:05:25;;;;;;;;;;;9.60;99.90;;;;;;5075324;28;19969;-71
2022/12/09 05:07:54;;;;;;;;;;;9.60;99.90;;;;;;5074401;28;19919;-71
2022/12/09 05:10:20;;;;;;;;;;;9.50;99.90;;;;;;5087823;28;20001;-71
2022/12/09 05:12:45;;;;;;;;;;;9.50;99.90;;;;;;5090490;28;20001;-71
2022/12/09 05:15:11;;;;;;;;;;;9.50;99.90;;;;;;5098837;28;19916;-71
2022/12/09 05:17:37;;;;;;;;;;;9.50;99.90;;;;;;5085840;28;20393;-75
2022/12/09 05:20:03;;;;;;;;;;;9.50;99.90;;;;;;5094950;28;19943;-71
2022/12/09 05:22:29;;;;;;;;;;;9.50;99.90;;;;;;5094136;28;19908;-72
2022/12/09 05:24:58;;;;;;;;;;;9.40;99.90;;;;;;5075137;28;20445;-72
2022/12/09 05:27:24;;;;;;;;;;;9.50;99.90;;;;;;5089925;28;20006;-71
2022/12/09 05:29:50;;;;;;;;;;;9.50;99.90;;;;;;5074471;28;19930;-72
2022/12/09 05:32:20;;;;;;;;;;;9.50;99.90;;;;;;5101515;28;19908;-71
2022/12/09 05:34:46;;;;;;;;;;;9.50;99.90;;;;;;5092371;28;20050;-71
2022/12/09 05:37:17;;;;;;;;;;;9.50;99.90;;;;;;5090771;28;20384;-71
2022/12/09 05:39:46;;;;;;;;;;;9.60;99.90;;;;;;5056750;28;19943;-71
2022/12/09 05:42:12;;;;;;;;;;;9.70;99.90;;;;;;5087475;28;20054;-71
2022/12/09 05:44:38;;;;;;;;;;;9.60;99.90;;;;;;5093486;28;19916;-71
2022/12/09 05:47:03;;;;;;;;;;;9.60;99.90;;;;;;5094042;28;19954;-72
2022/12/09 05:49:29;;;;;;;;;;;9.60;99.90;;;;;;5094265;28;19908;-71
2022/12/09 05:51:58;;;;;;;;;;;9.60;99.90;;;;;;5094100;28;19908;-71
2022/12/09 05:54:24;;;;;;;;;;;9.60;99.90;;;;;;5094156;28;19949;-71
2022/12/09 05:56:50;;;;;;;;;;;9.60;99.90;;;;;;5091118;28;19908;-71
2022/12/09 05:59:15;;;;;;;;;;;9.60;99.90;;;;;;5082508;28;19912;-71
2022/12/09 06:01:41;;;;;;;;;;;9.60;99.90;;;;;;5086804;28;19912;-71
2022/12/09 06:04:07;;;;;;;;;;;9.60;99.90;;;;;;5094337;28;19951;-71
2022/12/09 06:06:33;;;;;;;;;;;9.60;99.90;;;;;;5085644;28;19923;-71
2022/12/09 06:09:00;;;;;;;;;;;9.60;99.90;;;;;;5080600;28;19913;-71
2022/12/09 06:11:30;;;;;;;;;;;9.60;99.90;;;;;;5089806;28;19920;-71
2022/12/09 06:14:15;;;;;;;;;;;9.60;99.90;;;;;;5071505;28;19917;-71
2022/12/09 06:16:40;;;;;;;;;;;9.50;99.90;;;;;;5087084;28;20057;-71
2022/12/09 06:19:09;;;;;;;;;;;9.50;99.90;;;;;;5093224;28;19908;-73
2022/12/09 06:21:40;;;;;;;;;;;9.50;99.90;;;;;;5091519;28;20375;-71
2022/12/09 06:24:09;;;;;;;;;;;9.50;99.90;;;;;;5089197;28;19912;-71
2022/12/09 06:26:35;;;;;;;;;;;9.40;99.90;;;;;;5106236;28;19912;-73
2022/12/09 06:29:03;;;;;;;;;;;9.50;99.90;;;;;;5093996;28;19914;-71
2022/12/09 06:31:35;;;;;;;;;;;9.50;99.90;;;;;;5085028;28;19986;-71
2022/12/09 06:34:01;;;;;;;;;;;9.40;99.90;;;;;;5090882;28;19916;-71
2022/12/09 06:36:47;;;;;;;;;;;9.50;99.90;;;;;;5074383;28;19961;-71
2022/12/09 06:39:16;;;;;;;;;;;9.40;99.90;;;;;;5086864;28;19916;-71
2022/12/09 06:41:42;;;;;;;;;;;9.50;99.90;;;;;;5074122;28;19917;-72
2022/12/09 06:44:09;;;;;;;;;;;9.40;99.90;;;;;;5071955;28;20007;-72
2022/12/09 06:46:35;;;;;;;;;;;9.40;99.90;;;;;;5073913;28;19916;-71
2022/12/09 06:49:01;;;;;;;;;;;9.40;99.90;;;;;;5089177;28;20026;-71
2022/12/09 06:54:42;;;;;;;;;;;9.40;99.90;;;;;;5072071;28;19923;-72
2022/12/09 06:57:15;;;;;;;;;;;9.40;99.90;;;;;;5083278;28;19955;-71
2022/12/09 06:59:41;;;;;;;;;;;9.50;99.90;;;;;;5082010;28;19935;-72
2022/12/09 07:02:08;;;;;;;;;;;9.50;99.90;;;;;;5090401;28;20359;-72
2022/12/09 07:04:48;;;;;;;;;;;9.50;99.90;;;;;;5074134;28;19916;-72
2022/12/09 07:07:16;;;;;;;;;;;9.50;99.90;;;;;;5083466;28;19913;-71
2022/12/09 07:09:42;;;;;;;;;;;9.60;99.90;;;;;;5075327;28;19908;-72
2022/12/09 07:12:07;;;;;;;;;;;9.70;99.90;;;;;;5093869;28;19912;-71
2022/12/09 07:14:38;;;;;;;;;;;9.70;99.90;;;;;;5086824;28;19912;-72
2022/12/09 07:17:07;;;;;;;;;;;9.70;99.90;;;;;;5089981;28;20267;-71
2022/12/09 07:19:36;;;;;;;;;;;9.70;99.90;;;;;;5074627;28;19923;-72
2022/12/09 07:22:02;;;;;;;;;;;9.80;99.90;;;;;;5092933;28;19908;-72
2022/12/09 07:24:28;;;;;;;;;;;9.80;99.90;;;;;;5071663;28;19915;-71
2022/12/09 07:27:10;;;;;;;;;;;10.00;99.90;;;;;;5088646;28;19915;-71
2022/12/09 07:29:36;;;;;;;;;;;10.00;99.90;;;;;;5096562;28;19908;-71
2022/12/09 07:32:02;;;;;;;;;;;10.00;99.90;;;;;;5097590;28;20360;-73
2022/12/09 07:34:28;;;;;;;;;;;10.00;99.90;;;;;;5077318;28;19975;-72
2022/12/09 07:36:54;;;;;;;;;;;9.90;99.90;;;;;;5096628;28;19912;-71
2022/12/09 07:39:20;;;;;;;;;;;9.90;99.90;;;;;;5095415;28;20111;-73
2022/12/09 07:42:05;;;;;;;;;;;;;;;;;;;;;
2022/12/09 07:44:31;;;;;;;;;;;9.90;99.90;;;;;;5084827;28;19918;-70
2022/12/09 07:46:57;;;;;;;;;;;9.90;99.90;;;;;;5096253;28;19963;-71
2022/12/09 07:49:23;;;;;;;;;;;9.90;99.90;;;;;;5096635;28;19915;-71
2022/12/09 07:51:49;;;;;;;;;;;9.90;99.90;;;;;;5096841;28;19953;-70
2022/12/09 07:54:18;;;;;;;;;;;9.80;99.90;;;;;;5094427;28;20307;-71
2022/12/09 07:56:43;;;;;;;;;;;9.90;99.90;;;;;;5082901;28;19957;-72
2022/12/09 07:59:13;;;;;;;;;;;9.90;99.90;;;;;;5096666;28;20359;-71
2022/12/09 08:01:41;;;;;;;;;;;9.90;99.90;;;;;;5097106;28;19908;-72
2022/12/09 08:04:07;;;;;;;;;;;9.90;99.90;;;;;;5095797;28;20029;-73
2022/12/09 08:06:34;;;;;;;;;;;9.90;99.90;;;;;;5094216;28;19916;-72
2022/12/09 08:09:02;;;;;;;;;;;9.90;99.90;;;;;;5079174;28;19912;-72
2022/12/09 08:11:29;;;;;;;;;;;10.00;99.90;;;;;;5094784;28;19912;-72
2022/12/09 08:14:03;;;;;;;;;;;10.00;99.90;;;;;;5088979;28;19916;-72
2022/12/09 08:16:32;;;;;;;;;;;10.00;99.90;;;;;;5096164;28;19908;-72
2022/12/09 08:18:58;;;;;;;;;;;10.20;99.90;;;;;;5096831;28;19938;-71
2022/12/09 08:21:42;;;;;;;;;;;10.30;99.90;;;;;;5077079;28;19912;-72
2022/12/09 08:24:12;;;;;;;;;;;10.40;99.90;;;;;;5071359;28;19912;-72
2022/12/09 08:26:38;;;;;;;;;;;10.50;99.90;;;;;;5092114;28;19912;-72
2022/12/09 08:29:08;;;;;;;;;;;10.50;99.90;;;;;;5095850;28;19943;-69
2022/12/09 08:31:34;;;;;;;;;;;10.50;99.90;;;;;;5094520;28;19997;-69
2022/12/09 08:34:01;;;;;;;;;;;10.50;99.90;;;;;;5089196;28;20433;-70
2022/12/09 08:36:27;;;;;;;;;;;10.60;99.90;;;;;;5089039;28;20226;-72
2022/12/09 08:38:52;;;;;;;;;;;10.70;99.90;;;;;;5095211;28;19949;-72
2022/12/09 08:41:19;;;;;;;;;;;10.60;99.90;;;;;;5094429;28;20403;-72
2022/12/09 08:43:45;;;;;;;;;;;10.70;99.90;;;;;;5094024;28;19957;-72
2022/12/09 08:46:11;;;;;;;;;;;10.70;99.90;;;;;;5092813;28;19916;-75
2022/12/09 08:48:37;;;;;;;;;;;10.70;99.90;;;;;;5089125;28;19911;-72
2022/12/09 08:51:03;;;;;;;;;;;10.70;99.90;;;;;;5072781;28;19912;-72
2022/12/09 08:53:29;;;;;;;;;;;10.60;99.90;;;;;;5092224;28;20402;-71
2022/12/09 08:55:55;;;;;;;;;;;10.70;99.90;;;;;;5093184;28;19912;-72
2022/12/09 08:58:20;;;;;;;;;;;10.70;99.90;;;;;;5094592;28;19914;-72
2022/12/09 09:00:46;;;;;;;;;;;10.70;99.90;;;;;;5091751;28;20432;-72
2022/12/09 09:03:12;;;;;;;;;;;10.70;99.90;;;;;;5094113;28;20414;-72
2022/12/09 09:05:37;;;;;;;;;;;10.80;99.90;;;;;;5081629;28;20379;-70
2022/12/09 09:08:03;;;;;;;;;;;10.80;99.90;;;;;;5084263;28;19948;-67
2022/12/09 09:10:29;;;;;;;;;;;10.90;99.90;;;;;;5087482;28;20045;-68
2022/12/09 09:12:55;;;;;;;;;;;11.00;99.90;;;;;;5091264;28;19936;-65
2022/12/09 09:15:21;;;;;;;;;;;11.20;99.90;;;;;;5094155;28;20387;-71
2022/12/09 09:17:47;;;;;;;;;;;11.20;99.90;;;;;;5094011;28;19930;-70
2022/12/09 09:20:12;;;;;;;;;;;11.20;99.90;;;;;;5092776;28;19912;-70
2022/12/09 09:22:43;;;;;;;;;;;11.30;99.90;;;;;;5094337;28;19954;-70
2022/12/09 09:25:09;;;;;;;;;;;11.30;99.90;;;;;;5092333;28;20396;-70
2022/12/09 09:27:35;;;;;;;;;;;11.40;99.90;;;;;;5090563;28;19977;-70
2022/12/09 09:30:02;;;;;;;;;;;11.50;99.90;;;;;;5089269;28;19908;-70
2022/12/09 09:32:28;;;;;;;;;;;11.60;99.90;;;;;;5095246;28;19971;-70
2022/12/09 09:34:54;;;;;;;;;;;11.60;99.90;;;;;;5089235;28;19960;-71
2022/12/09 09:37:19;;;;;;;;;;;11.70;99.90;;;;;;5092846;28;20001;-69
2022/12/09 09:39:45;;;;;;;;;;;11.70;99.90;;;;;;5093823;28;20422;-70
2022/12/09 09:42:18;;;;;;;;;;;11.80;99.90;;;;;;5089195;28;19999;-69
2022/12/09 09:44:46;;;;;;;;;;;11.70;99.90;;;;;;5080276;28;19916;-71
2022/12/09 09:47:30;;;;;;;;;;;11.80;99.90;;;;;;5089333;28;20320;-69
2022/12/09 09:50:06;;;;;;;;;;;11.80;99.90;;;;;;5095868;28;19920;-70
2022/12/09 09:52:33;;;;;;;;;;;11.80;99.90;;;;;;5084298;28;20205;-69
2022/12/09 09:55:13;;;;;;;;;;;11.80;99.90;;;;;;5092871;28;19970;-67
2022/12/09 09:57:44;;;;;;;;;;;11.80;99.90;;;;;;5090973;28;20393;-70
2022/12/09 10:00:21;;;;;;;;;;;11.90;99.90;;;;;;5088241;28;19912;-70
2022/12/09 10:02:47;;;;;;;;;;;11.90;99.90;;;;;;5083943;28;19909;-69
2022/12/09 10:05:48;;;;;;;;;;;11.90;99.90;;;;;;5088518;28;19919;-70
2022/12/09 10:08:14;;;;;;;;;;;11.90;99.90;;;;;;5010694;28;19909;-69
2022/12/09 10:10:58;;;;;;;;;;;11.90;99.90;;;;;;5064044;28;19965;-70
2022/12/09 10:13:26;;;;;;;;;;;11.90;99.90;;;;;;5092249;28;19926;-69
2022/12/09 10:15:55;;;;;;;;;;;11.90;99.90;;;;;;5093182;28;19931;-70
2022/12/09 10:18:24;;;;;;;;;;;11.90;99.90;;;;;;5092705;28;20187;-70
2022/12/09 10:20:53;;;;;;;;;;;11.90;99.90;;;;;;5092196;28;19957;-71
2022/12/09 10:23:20;;;;;;;;;;;12.00;99.90;;;;;;5093040;28;19918;-70
2022/12/09 10:26:13;;;;;;;;;;;12.00;99.90;;;;;;5090511;28;20394;-70
2022/12/09 10:28:41;;;;;;;;;;;12.00;99.90;;;;;;5093325;28;20434;-69
2022/12/09 10:31:09;;;;;;;;;;;12.00;99.90;;;;;;5091362;28;19973;-69
2022/12/09 10:33:35;;;;;;;;;;;12.10;99.90;;;;;;5093099;28;19973;-69
2022/12/09 10:36:01;;;;;;;;;;;12.10;99.90;;;;;;5093312;28;19912;-70
2022/12/09 10:38:28;;;;;;;;;;;12.10;99.90;;;;;;5093344;28;20327;-70
2022/12/09 10:41:00;;;;;;;;;;;12.20;99.90;;;;;;5092532;28;19923;-74
2022/12/09 10:43:42;;;;;;;;;;;12.20;99.90;;;;;;5093047;28;19994;-70
2022/12/09 10:46:18;;;;;;;;;;;12.20;99.90;;;;;;5084538;28;19938;-73
2022/12/09 10:48:47;;;;;;;;;;;12.30;99.90;;;;;;5088446;28;19917;-70
2022/12/09 10:51:14;;;;;;;;;;;12.40;99.90;;;;;;5091671;28;19912;-73
2022/12/09 10:53:51;;;;;;;;;;;12.40;99.90;;;;;;5067238;28;20428;-69
2022/12/09 10:56:23;;;;;;;;;;;12.40;99.90;;;;;;5087835;28;19919;-69
2022/12/09 10:59:06;;;;;;;;;;;12.40;99.90;;;;;;5085721;28;19960;-68
2022/12/09 11:01:46;;;;;;;;;;;12.50;99.90;;;;;;5091733;28;19922;-70
2022/12/09 11:04:12;;;;;;;;;;;12.50;99.90;;;;;;5095429;28;19958;-69
2022/12/09 11:06:39;;;;;;;;;;;12.60;99.90;;;;;;5096440;28;19984;-70
2022/12/09 11:09:05;;;;;;;;;;;12.60;99.90;;;;;;5078984;28;20002;-68
2022/12/09 11:11:43;;;;;;;;;;;12.50;99.90;;;;;;5096941;28;19970;-69
2022/12/09 11:14:23;;;;;;;;;;;12.60;99.90;;;;;;5094916;28;19916;-70
2022/12/09 11:16:53;;;;;;;;;;;12.60;99.90;;;;;;5088836;28;20370;-70
2022/12/09 11:19:32;;;;;;;;;;;12.60;99.90;;;;;;5094204;28;19952;-69
2022/12/09 11:22:14;;;;;;;;;;;12.70;99.90;;;;;;5094019;28;19956;-70
2022/12/09 11:24:40;;;;;;;;;;;12.70;99.90;;;;;;5088925;28;19916;-70
2022/12/09 11:27:23;;;;;;;;;;;12.70;99.90;;;;;;5094235;28;19912;-74
2022/12/09 11:30:15;;;;;;;;;;;12.70;99.90;;;;;;5095489;28;19912;-70
2022/12/09 11:33:00;;;;;;;;;;;12.70;99.90;;;;;;5095976;28;19912;-70
2022/12/09 11:35:37;;;;;;;;;;;12.70;99.90;;;;;;5093487;28;19961;-70
2022/12/09 11:38:23;;;;;;;;;;;12.80;99.90;;;;;;5092528;28;19916;-71
2022/12/09 11:42:12;;;;;;;;;;;12.80;99.90;;;;;;5076906;28;19912;-74
2022/12/09 11:44:21;;;;;;;;;;;12.80;99.90;;;;;;5090208;28;19990;-75
2022/12/09 11:46:53;;;;;;;;;;;12.90;99.90;;;;;;5089194;28;19912;-70
2022/12/09 11:49:20;;;;;;;;;;;12.90;99.90;;;;;;5089415;28;19912;-71
2022/12/09 11:51:58;;;;;;;;;;;12.90;99.90;;;;;;5093469;28;19958;-70
2022/12/09 11:54:29;;;;;;;;;;;13.00;99.90;;;;;;5090706;28;19924;-72
2022/12/09 11:57:00;;;;;;;;;;;13.00;99.90;;;;;;5094100;28;19918;-71
2022/12/09 11:59:32;;;;;;;;;;;13.00;99.90;;;;;;5092544;28;19921;-71
2022/12/09 12:02:19;;;;;;;;;;;13.00;99.90;;;;;;5094679;28;20329;-70
2022/12/09 12:04:57;;;;;;;;;;;13.00;99.90;;;;;;5086594;28;19928;-72
2022/12/09 12:07:29;;;;;;;;;;;13.00;99.90;;;;;;5091286;28;19942;-71
2022/12/09 12:09:56;;;;;;;;;;;13.10;99.90;;;;;;5083640;28;19939;-71
2022/12/09 12:15:29;;;;;;;;;;;13.00;99.90;;;;;;5090855;28;19923;-71
2022/12/09 12:17:58;;;;;;;;;;;13.10;99.90;;;;;;5088335;28;19912;-69
2022/12/09 12:20:33;;;;;;;;;;;13.20;99.90;;;;;;5093495;28;19923;-72
2022/12/09 12:23:17;;;;;;;;;;;13.10;99.90;;;;;;5091073;28;19912;-69
2022/12/09 12:26:01;;;;;;;;;;;13.20;99.90;;;;;;5074213;28;20315;-70
2022/12/09 12:28:33;;;;;;;;;;;13.20;99.90;;;;;;5093062;28;19997;-68
2022/12/09 12:31:18;;;;;;;;;;;13.20;99.90;;;;;;5089569;28;19916;-70
2022/12/09 12:37:06;;;;;;;;;;;13.20;99.90;;;;;;5006883;28;20006;-70
2022/12/09 12:39:44;;;;;;;;;;;13.20;99.90;;;;;;5087414;28;19935;-70
2022/12/09 12:42:13;;;;;;;;;;;13.20;99.90;;;;;;5085513;28;20413;-70
2022/12/09 12:47:41;;;;;;;;;;;13.30;99.90;;;;;;5089321;28;20306;-69
2022/12/09 12:50:07;;;;;;;;;;;13.20;99.90;;;;;;5093616;28;19940;-69
2022/12/09 12:52:37;;;;;;;;;;;13.20;99.90;;;;;;5091923;28;19916;-70
2022/12/09 12:55:12;;;;;;;;;;;13.20;99.90;;;;;;5089282;28;19931;-70
2022/12/09 12:57:47;;;;;;;;;;;13.20;99.90;;;;;;5092311;28;19915;-70
2022/12/09 13:00:17;;;;;;;;;;;13.20;99.90;;;;;;5093146;28;19951;-70
2022/12/09 13:02:51;;;;;;;;;;;13.20;99.90;;;;;;5085092;28;19919;-70
2022/12/09 13:05:20;;;;;;;;;;;13.30;99.90;;;;;;5093066;28;19981;-70
2022/12/09 13:07:52;;;;;;;;;;;13.30;99.90;;;;;;5073561;28;19946;-70
2022/12/09 13:10:29;;;;;;;;;;;13.40;99.90;;;;;;5083100;28;19962;-70
2022/12/09 13:13:00;;;;;;;;;;;13.40;99.90;;;;;;5078963;28;19958;-70
2022/12/09 13:15:37;;;;;;;;;;;13.50;99.90;;;;;;5080711;28;20322;-70
2022/12/09 13:18:21;;;;;;;;;;;13.50;99.90;;;;;;5089116;28;20034;-70
2022/12/09 13:20:48;;;;;;;;;;;13.50;99.90;;;;;;5103808;28;19912;-69
2022/12/09 13:23:23;;;;;;;;;;;13.40;99.90;;;;;;5085139;28;19918;-69
2022/12/09 13:25:52;;;;;;;;;;;13.40;99.90;;;;;;5090093;28;19912;-69
2022/12/09 13:28:36;;;;;;;;;;;13.40;99.90;;;;;;5092711;28;19951;-70
2022/12/09 13:31:06;;;;;;;;;;;13.50;99.90;;;;;;5090807;28;20422;-69
2022/12/09 13:33:37;;;;;;;;;;;13.50;99.90;;;;;;5089235;28;20019;-69
2022/12/09 13:36:03;;;;;;;;;;;13.40;99.90;;;;;;5087635;28;19970;-70
2022/12/09 13:38:35;;;;;;;;;;;13.40;99.90;;;;;;5083809;28;19908;-70
2022/12/09 13:41:21;;;;;;;;;;;13.40;99.90;;;;;;5066642;28;19938;-70
2022/12/09 13:43:47;;;;;;;;;;;13.40;99.90;;;;;;5083541;28;19952;-71
2022/12/09 13:46:19;;;;;;;;;;;13.40;99.90;;;;;;5024250;28;1919062;-70
2022/12/09 13:48:46;;;;;;;;;;;13.30;99.90;;;;;;5093283;28;19908;-70
2022/12/09 13:51:12;;;;;;;;;;;13.40;99.90;;;;;;5085390;28;19912;-70
2022/12/09 13:53:44;;;;;;;;;;;13.40;99.90;;;;;;5089202;28;19947;-68
2022/12/09 13:56:42;;;;;;;;;;;13.30;99.90;;;;;;5066516;28;19927;-70
2022/12/09 13:59:29;;;;;;;;;;;13.40;99.90;;;;;;5035658;28;19912;-70
2022/12/09 14:01:58;;;;;;;;;;;13.40;99.90;;;;;;5090831;28;19916;-70
2022/12/09 14:04:26;;;;;;;;;;;13.40;99.90;;;;;;5094364;28;20364;-70
2022/12/09 14:06:51;;;;;;;;;;;13.40;99.90;;;;;;5092808;28;19919;-70
2022/12/09 14:09:17;;;;;;;;;;;13.40;99.90;;;;;;5090462;28;19916;-70
2022/12/09 14:11:59;;;;;;;;;;;13.40;99.90;;;;;;5085272;28;20300;-70
2022/12/09 14:14:27;;;;;;;;;;;13.40;99.90;;;;;;5085855;28;20248;-70
2022/12/09 14:17:01;;;;;;;;;;;13.50;99.90;;;;;;5092515;28;19955;-70
2022/12/09 14:19:28;;;;;;;;;;;13.40;99.90;;;;;;5092402;28;19908;-70
2022/12/09 14:22:22;;;;;;;;;;;13.40;99.90;;;;;;5087632;28;19945;-69
2022/12/09 14:24:48;;;;;;;;;;;13.40;99.90;;;;;;5089453;28;20300;-69
2022/12/09 14:27:14;;;;;;;;;;;13.30;99.90;;;;;;5089838;28;19912;-70
2022/12/09 14:29:44;;;;;;;;;;;13.30;99.90;;;;;;5087294;28;19919;-70
2022/12/09 14:32:19;;;;;;;;;;;13.40;99.90;;;;;;5093762;28;19965;-69
2022/12/09 14:34:46;;;;;;;;;;;13.40;99.90;;;;;;5083231;28;19916;-69
2022/12/09 14:37:23;;;;;;;;;;;13.40;99.90;;;;;;5092155;28;19909;-69
2022/12/09 14:39:56;;;;;;;;;;;13.50;99.90;;;;;;5077869;28;19913;-69
2022/12/09 14:42:40;;;;;;;;;;;13.40;99.90;;;;;;5066790;28;20321;-70
2022/12/09 14:45:09;;;;;;;;;;;13.40;99.90;;;;;;5084027;28;19955;-70
2022/12/09 14:47:39;;;;;;;;;;;13.50;99.90;;;;;;5091059;28;20372;-69
2022/12/09 14:50:15;;;;;;;;;;;13.50;99.90;;;;;;5086971;28;20007;-70
2022/12/09 14:52:52;;;;;;;;;;;13.60;99.90;;;;;;5092133;28;20367;-69
2022/12/09 14:55:18;;;;;;;;;;;13.50;99.90;;;;;;5092017;28;20428;-70
2022/12/09 14:57:45;;;;;;;;;;;13.40;99.90;;;;;;5085093;28;20389;-70
2022/12/09 15:00:23;;;;;;;;;;;13.40;99.90;;;;;;5089394;28;20026;-70
2022/12/09 15:02:50;;;;;;;;;;;13.30;99.90;;;;;;5089104;28;20231;-70